sensor_id;sensor_type;location;lat;lon;timestamp;pressure;altitude;pressure_sealevel;temperature;humidity
23805;BME280;12083;52.098;7.582;2022-07-17T00:00:44;102361.13;;;18.44;42.44
23805;BME280;12083;52.098;7.582;2022-07-17T00:03:11;102356.84;;;18.39;42.59
23805;BME280;12083;52.098;7.582;2022-07-17T00:05:38;102359.75;;;18.31;42.51
23805;BME280;12083;52.098;7.582;2022-07-17T00:08:05;102351.91;;;18.27;42.69
23805;BME280;12083;52.098;7.582;2022-07-17T00:10:35;102350.22;;;18.24;42.83
23805;BME280;12083;52.098;7.582;2022-07-17T00:13:01;102349.47;;;18.19;42.84
23805;BME280;12083;52.098;7.582;2022-07-17T00:15:27;102349.63;;;18.15;42.81
23805;BME280;12083;52.098;7.582;2022-07-17T00:17:53;102352.44;;;18.08;42.99
23805;BME280;12083;52.098;7.582;2022-07-17T00:20:19;102357.91;;;18.04;43.20
23805;BME280;12083;52.098;7.582;2022-07-17T00:22:45;102350.88;;;18.01;43.21
23805;BME280;12083;52.098;7.582;2022-07-17T00:25:12;102352.78;;;17.96;43.30
23805;BME280;12083;52.098;7.582;2022-07-17T00:27:39;102356.50;;;17.91;43.47
23805;BME280;12083;52.098;7.582;2022-07-17T00:30:06;102349.56;;;17.85;43.57
23805;BME280;12083;52.098;7.582;2022-07-17T00:32:33;102353.28;;;17.80;43.64
23805;BME280;12083;52.098;7.582;2022-07-17T00:34:58;102353.41;;;17.75;43.95
23805;BME280;12083;52.098;7.582;2022-07-17T00:37:24;102352.63;;;17.72;43.89
23805;BME280;12083;52.098;7.582;2022-07-17T00:39:49;102358.06;;;17.67;43.69
23805;BME280;12083;52.098;7.582;2022-07-17T00:42:16;102363.47;;;17.64;43.96
23805;BME280;12083;52.098;7.582;2022-07-17T00:44:43;102362.75;;;17.57;44.18
23805;BME280;12083;52.098;7.582;2022-07-17T00:47:12;102361.09;;;17.52;44.19
23805;BME280;12083;52.098;7.582;2022-07-17T00:49:38;102352.28;;;17.50;44.26
23805;BME280;12083;52.098;7.582;2022-07-17T00:52:04;102359.53;;;17.45;44.31
23805;BME280;12083;52.098;7.582;2022-07-17T00:54:30;102357.84;;;17.41;44.40
23805;BME280;12083;52.098;7.582;2022-07-17T00:56:56;102347.34;;;17.36;44.51
23805;BME280;12083;52.098;7.582;2022-07-17T00:59:24;102353.66;;;17.32;44.58
23805;BME280;12083;52.098;7.582;2022-07-17T01:01:50;102359.06;;;17.28;44.52
23805;BME280;12083;52.098;7.582;2022-07-17T01:04:15;102359.16;;;17.25;44.52
23805;BME280;12083;52.098;7.582;2022-07-17T01:06:41;102357.56;;;17.18;44.73
23805;BME280;12083;52.098;7.582;2022-07-17T01:09:10;102356.78;;;17.14;44.90
23805;BME280;12083;52.098;7.582;2022-07-17T01:11:36;102351.56;;;17.09;44.92
23805;BME280;12083;52.098;7.582;2022-07-17T01:14:01;102352.50;;;17.07;44.76
23805;BME280;12083;52.098;7.582;2022-07-17T01:16:27;102359.72;;;17.02;45.12
23805;BME280;12083;52.098;7.582;2022-07-17T01:18:54;102352.75;;;16.98;45.26
23805;BME280;12083;52.098;7.582;2022-07-17T01:21:21;102350.19;;;16.93;45.16
23805;BME280;12083;52.098;7.582;2022-07-17T01:23:47;102345.84;;;16.91;45.37
23805;BME280;12083;52.098;7.582;2022-07-17T01:26:12;102359.22;;;16.86;45.47
23805;BME280;12083;52.098;7.582;2022-07-17T01:28:38;102355.78;;;16.81;45.65
23805;BME280;12083;52.098;7.582;2022-07-17T01:31:04;102353.22;;;16.78;45.65
23805;BME280;12083;52.098;7.582;2022-07-17T01:33:29;102357.75;;;16.73;45.55
23805;BME280;12083;52.098;7.582;2022-07-17T01:35:55;102361.38;;;16.71;45.60
23805;BME280;12083;52.098;7.582;2022-07-17T01:38:21;102365.00;;;16.65;45.89
23805;BME280;12083;52.098;7.582;2022-07-17T01:40:46;102363.34;;;16.61;45.75
23805;BME280;12083;52.098;7.582;2022-07-17T01:43:12;102355.50;;;16.56;46.01
23805;BME280;12083;52.098;7.582;2022-07-17T01:45:38;102361.75;;;16.52;46.15
23805;BME280;12083;52.098;7.582;2022-07-17T01:48:04;102367.16;;;16.48;46.19
23805;BME280;12083;52.098;7.582;2022-07-17T01:50:30;102374.31;;;16.44;46.36
23805;BME280;12083;52.098;7.582;2022-07-17T01:52:56;102372.56;;;16.42;46.30
23805;BME280;12083;52.098;7.582;2022-07-17T01:55:21;102363.88;;;16.37;46.50
23805;BME280;12083;52.098;7.582;2022-07-17T01:57:47;102362.19;;;16.33;46.72
23805;BME280;12083;52.098;7.582;2022-07-17T02:00:15;102363.97;;;16.31;46.76
23805;BME280;12083;52.098;7.582;2022-07-17T02:02:42;102364.94;;;16.28;46.80
23805;BME280;12083;52.098;7.582;2022-07-17T02:05:08;102367.69;;;16.24;46.90
23805;BME280;12083;52.098;7.582;2022-07-17T02:07:34;102364.22;;;16.20;47.00
23805;BME280;12083;52.098;7.582;2022-07-17T02:10:00;102362.50;;;16.17;46.89
23805;BME280;12083;52.098;7.582;2022-07-17T02:12:26;102359.97;;;16.11;47.28
23805;BME280;12083;52.098;7.582;2022-07-17T02:14:51;102360.88;;;16.10;47.31
23805;BME280;12083;52.098;7.582;2022-07-17T02:17:17;102364.47;;;16.06;47.31
23805;BME280;12083;52.098;7.582;2022-07-17T02:19:43;102365.47;;;16.02;47.47
23805;BME280;12083;52.098;7.582;2022-07-17T02:22:08;102362.88;;;15.99;47.47
23805;BME280;12083;52.098;7.582;2022-07-17T02:24:34;102366.47;;;15.95;47.47
23805;BME280;12083;52.098;7.582;2022-07-17T02:26:59;102371.84;;;15.92;47.57
23805;BME280;12083;52.098;7.582;2022-07-17T02:29:25;102371.03;;;15.90;47.71
23805;BME280;12083;52.098;7.582;2022-07-17T02:31:50;102356.09;;;15.86;47.71
23805;BME280;12083;52.098;7.582;2022-07-17T02:34:16;102372.91;;;15.84;47.85
23805;BME280;12083;52.098;7.582;2022-07-17T02:36:42;102369.47;;;15.79;47.99
23805;BME280;12083;52.098;7.582;2022-07-17T02:39:08;102369.50;;;15.76;47.93
23805;BME280;12083;52.098;7.582;2022-07-17T02:41:34;102371.34;;;15.72;48.09
23805;BME280;12083;52.098;7.582;2022-07-17T02:43:59;102373.19;;;15.68;48.23
23805;BME280;12083;52.098;7.582;2022-07-17T02:46:25;102375.03;;;15.65;48.19
23805;BME280;12083;52.098;7.582;2022-07-17T02:48:50;102378.63;;;15.62;48.23
23805;BME280;12083;52.098;7.582;2022-07-17T02:51:16;102376.94;;;15.57;48.33
23805;BME280;12083;52.098;7.582;2022-07-17T02:53:41;102377.03;;;15.52;48.46
23805;BME280;12083;52.098;7.582;2022-07-17T02:56:07;102379.72;;;15.48;48.47
23805;BME280;12083;52.098;7.582;2022-07-17T02:58:33;102386.81;;;15.46;48.87
23805;BME280;12083;52.098;7.582;2022-07-17T03:00:58;102386.88;;;15.43;48.77
23805;BME280;12083;52.098;7.582;2022-07-17T03:03:24;102386.88;;;15.41;48.81
23805;BME280;12083;52.098;7.582;2022-07-17T03:05:50;102388.72;;;15.38;48.87
23805;BME280;12083;52.098;7.582;2022-07-17T03:08:15;102389.66;;;15.35;48.93
23805;BME280;12083;52.098;7.582;2022-07-17T03:10:41;102394.06;;;15.35;48.80
23805;BME280;12083;52.098;7.582;2022-07-17T03:13:06;102395.03;;;15.31;48.61
23805;BME280;12083;52.098;7.582;2022-07-17T03:15:32;102392.44;;;15.27;49.14
23805;BME280;12083;52.098;7.582;2022-07-17T03:17:58;102395.13;;;15.24;49.32
23805;BME280;12083;52.098;7.582;2022-07-17T03:20:24;102392.50;;;15.21;49.38
23805;BME280;12083;52.098;7.582;2022-07-17T03:22:50;102384.69;;;15.17;49.56
23805;BME280;12083;52.098;7.582;2022-07-17T03:25:16;102399.69;;;15.16;49.49
23805;BME280;12083;52.098;7.582;2022-07-17T03:27:41;102397.03;;;15.15;49.93
23805;BME280;12083;52.098;7.582;2022-07-17T03:30:07;102393.56;;;15.11;49.66
23805;BME280;12083;52.098;7.582;2022-07-17T03:32:33;102385.66;;;15.10;49.65
23805;BME280;12083;52.098;7.582;2022-07-17T03:34:59;102392.75;;;15.06;49.93
23805;BME280;12083;52.098;7.582;2022-07-17T03:37:27;102387.50;;;15.05;49.66
23805;BME280;12083;52.098;7.582;2022-07-17T03:39:54;102396.41;;;15.01;49.91
23805;BME280;12083;52.098;7.582;2022-07-17T03:42:20;102393.75;;;14.99;50.05
23805;BME280;12083;52.098;7.582;2022-07-17T03:44:45;102394.63;;;15.00;49.95
23805;BME280;12083;52.098;7.582;2022-07-17T03:47:11;102394.69;;;14.97;49.97
23805;BME280;12083;52.098;7.582;2022-07-17T03:49:36;102394.69;;;14.95;50.02
23805;BME280;12083;52.098;7.582;2022-07-17T03:52:02;102394.75;;;14.92;50.38
23805;BME280;12083;52.098;7.582;2022-07-17T03:54:28;102398.28;;;14.91;50.53
23805;BME280;12083;52.098;7.582;2022-07-17T03:56:53;102393.94;;;14.90;50.58
23805;BME280;12083;52.098;7.582;2022-07-17T03:59:19;102394.75;;;14.91;50.35
23805;BME280;12083;52.098;7.582;2022-07-17T04:01:45;102387.75;;;14.88;50.52
23805;BME280;12083;52.098;7.582;2022-07-17T04:04:10;102386.00;;;14.87;50.63
23805;BME280;12083;52.098;7.582;2022-07-17T04:06:36;102384.28;;;14.86;50.61
23805;BME280;12083;52.098;7.582;2022-07-17T04:09:01;102373.69;;;14.86;50.83
23805;BME280;12083;52.098;7.582;2022-07-17T04:11:28;102368.41;;;14.86;50.61
23805;BME280;12083;52.098;7.582;2022-07-17T04:13:53;102379.00;;;14.85;51.10
23805;BME280;12083;52.098;7.582;2022-07-17T05:16:23;102414.13;;;15.52;52.27
23805;BME280;12083;52.098;7.582;2022-07-17T05:18:49;102418.44;;;15.58;52.25
23805;BME280;12083;52.098;7.582;2022-07-17T05:21:14;102421.88;;;15.63;52.48
23805;BME280;12083;52.098;7.582;2022-07-17T05:23:40;102413.81;;;15.69;52.65
23805;BME280;12083;52.098;7.582;2022-07-17T05:26:06;102419.91;;;15.72;52.56
23805;BME280;12083;52.098;7.582;2022-07-17T05:28:31;102410.09;;;15.79;52.76
23805;BME280;12083;52.098;7.582;2022-07-17T05:30:57;102425.88;;;15.85;52.87
23805;BME280;12083;52.098;7.582;2022-07-17T05:33:22;102416.91;;;15.92;53.18
23805;BME280;12083;52.098;7.582;2022-07-17T05:35:48;102427.31;;;16.03;52.91
23805;BME280;12083;52.098;7.582;2022-07-17T05:38:14;102418.31;;;16.11;52.85
23805;BME280;12083;52.098;7.582;2022-07-17T05:40:39;102418.97;;;16.23;52.83
23805;BME280;12083;52.098;7.582;2022-07-17T05:43:05;102416.00;;;16.38;52.67
23805;BME280;12083;52.098;7.582;2022-07-17T05:45:30;102416.75;;;16.86;53.08
23805;BME280;12083;52.098;7.582;2022-07-17T05:47:56;102411.69;;;17.83;53.60
23805;BME280;12083;52.098;7.582;2022-07-17T05:50:21;102411.56;;;19.08;52.72
23805;BME280;12083;52.098;7.582;2022-07-17T05:52:47;102406.59;;;20.49;51.34
23805;BME280;12083;52.098;7.582;2022-07-17T05:55:13;102404.09;;;21.95;49.49
23805;BME280;12083;52.098;7.582;2022-07-17T05:57:38;102403.63;;;23.36;47.59
23805;BME280;12083;52.098;7.582;2022-07-17T06:00:05;102391.84;;;24.72;45.69
23805;BME280;12083;52.098;7.582;2022-07-17T06:02:37;102401.16;;;26.02;44.17
23805;BME280;12083;52.098;7.582;2022-07-17T06:05:03;102393.25;;;27.24;42.39
23805;BME280;12083;52.098;7.582;2022-07-17T06:07:29;102373.31;;;28.42;41.19
23805;BME280;12083;52.098;7.582;2022-07-17T06:09:54;102381.31;;;29.51;39.79
23805;BME280;12083;52.098;7.582;2022-07-17T06:12:20;102374.53;;;30.24;38.31
23805;BME280;12083;52.098;7.582;2022-07-17T06:14:45;102368.88;;;30.05;38.16
23805;BME280;12083;52.098;7.582;2022-07-17T06:17:11;102371.63;;;29.81;38.27
23805;BME280;12083;52.098;7.582;2022-07-17T06:19:36;102366.94;;;29.61;38.11
23805;BME280;12083;52.098;7.582;2022-07-17T06:22:02;102374.88;;;29.17;37.93
23805;BME280;12083;52.098;7.582;2022-07-17T06:24:28;102365.09;;;28.67;37.76
23805;BME280;12083;52.098;7.582;2022-07-17T06:26:53;102358.84;;;28.17;37.94
23805;BME280;12083;52.098;7.582;2022-07-17T06:29:19;102360.78;;;27.90;38.28
23805;BME280;12083;52.098;7.582;2022-07-17T06:31:44;102376.53;;;27.96;38.16
23805;BME280;12083;52.098;7.582;2022-07-17T06:34:10;102396.88;;;27.89;37.72
23805;BME280;12083;52.098;7.582;2022-07-17T06:36:35;102376.66;;;27.82;37.75
23805;BME280;12083;52.098;7.582;2022-07-17T06:39:01;102375.69;;;27.83;37.73
23805;BME280;12083;52.098;7.582;2022-07-17T06:41:27;102370.53;;;27.80;37.56
23805;BME280;12083;52.098;7.582;2022-07-17T06:43:52;102382.69;;;27.73;37.22
23805;BME280;12083;52.098;7.582;2022-07-17T06:46:18;102383.03;;;27.68;37.00
23805;BME280;12083;52.098;7.582;2022-07-17T06:48:43;102385.94;;;27.78;36.97
23805;BME280;12083;52.098;7.582;2022-07-17T06:51:09;102366.28;;;28.01;36.80
23805;BME280;12083;52.098;7.582;2022-07-17T06:53:35;102370.94;;;28.12;36.39
23805;BME280;12083;52.098;7.582;2022-07-17T06:56:00;102360.50;;;28.69;35.79
23805;BME280;12083;52.098;7.582;2022-07-17T06:58:26;102353.09;;;29.18;35.26
23805;BME280;12083;52.098;7.582;2022-07-17T07:00:52;102350.34;;;29.77;34.78
23805;BME280;12083;52.098;7.582;2022-07-17T07:03:17;102342.22;;;30.55;33.56
23805;BME280;12083;52.098;7.582;2022-07-17T07:05:43;102344.03;;;31.40;32.63
23805;BME280;12083;52.098;7.582;2022-07-17T07:08:09;102333.09;;;32.33;31.97
23805;BME280;12083;52.098;7.582;2022-07-17T07:10:34;102345.47;;;33.15;31.02
23805;BME280;12083;52.098;7.582;2022-07-17T07:13:00;102340.75;;;33.92;30.32
23805;BME280;12083;52.098;7.582;2022-07-17T07:15:26;102345.88;;;34.69;29.39
23805;BME280;12083;52.098;7.582;2022-07-17T07:17:52;102355.19;;;35.29;28.67
23805;BME280;12083;52.098;7.582;2022-07-17T07:20:18;102349.34;;;35.94;27.91
23805;BME280;12083;52.098;7.582;2022-07-17T07:22:44;102349.97;;;36.55;27.47
23805;BME280;12083;52.098;7.582;2022-07-17T07:25:09;102350.81;;;37.14;26.64
23805;BME280;12083;52.098;7.582;2022-07-17T07:27:35;102364.50;;;37.71;26.07
23805;BME280;12083;52.098;7.582;2022-07-17T07:30:01;102376.50;;;38.33;25.82
23805;BME280;12083;52.098;7.582;2022-07-17T07:32:27;102380.63;;;38.76;24.91
23805;BME280;12083;52.098;7.582;2022-07-17T07:34:52;102386.84;;;39.23;24.59
23805;BME280;12083;52.098;7.582;2022-07-17T07:37:20;102389.19;;;39.72;24.17
23805;BME280;12083;52.098;7.582;2022-07-17T07:39:45;102394.84;;;40.22;23.25
23805;BME280;12083;52.098;7.582;2022-07-17T07:42:11;102389.09;;;40.68;23.07
23805;BME280;12083;52.098;7.582;2022-07-17T07:44:37;102387.06;;;41.12;22.74
23805;BME280;12083;52.098;7.582;2022-07-17T07:47:02;102398.03;;;41.48;22.22
23805;BME280;12083;52.098;7.582;2022-07-17T07:49:28;102396.97;;;41.77;21.90
23805;BME280;12083;52.098;7.582;2022-07-17T07:51:53;102392.88;;;41.94;21.87
23805;BME280;12083;52.098;7.582;2022-07-17T07:54:19;102392.03;;;41.94;21.23
23805;BME280;12083;52.098;7.582;2022-07-17T07:56:44;102399.91;;;41.97;21.25
23805;BME280;12083;52.098;7.582;2022-07-17T07:59:10;102394.16;;;41.98;21.15
23805;BME280;12083;52.098;7.582;2022-07-17T08:01:36;102399.69;;;41.98;20.74
23805;BME280;12083;52.098;7.582;2022-07-17T08:04:01;102398.19;;;41.96;20.77
23805;BME280;12083;52.098;7.582;2022-07-17T08:06:27;102394.09;;;41.85;20.75
23805;BME280;12083;52.098;7.582;2022-07-17T08:08:52;102398.00;;;41.69;20.64
23805;BME280;12083;52.098;7.582;2022-07-17T08:11:18;102403.34;;;41.50;20.71
23805;BME280;12083;52.098;7.582;2022-07-17T08:13:44;102406.31;;;41.27;20.55
23805;BME280;12083;52.098;7.582;2022-07-17T08:16:09;102399.28;;;41.03;20.60
23805;BME280;12083;52.098;7.582;2022-07-17T08:18:35;102399.81;;;40.77;20.55
23805;BME280;12083;52.098;7.582;2022-07-17T08:21:01;102401.28;;;40.44;20.69
23805;BME280;12083;52.098;7.582;2022-07-17T08:23:26;102403.34;;;40.13;20.58
23805;BME280;12083;52.098;7.582;2022-07-17T08:25:52;102403.53;;;39.82;20.88
23805;BME280;12083;52.098;7.582;2022-07-17T08:28:18;102407.94;;;39.53;20.40
23805;BME280;12083;52.098;7.582;2022-07-17T08:30:43;102402.63;;;39.29;20.99
23805;BME280;12083;52.098;7.582;2022-07-17T08:33:09;102403.16;;;39.02;20.93
23805;BME280;12083;52.098;7.582;2022-07-17T08:35:36;102397.97;;;38.76;20.98
23805;BME280;12083;52.098;7.582;2022-07-17T08:38:02;102403.75;;;38.50;20.89
23805;BME280;12083;52.098;7.582;2022-07-17T08:40:31;102399.53;;;38.24;21.18
23805;BME280;12083;52.098;7.582;2022-07-17T08:42:59;102395.34;;;37.97;21.33
23805;BME280;12083;52.098;7.582;2022-07-17T08:45:26;102394.19;;;37.59;21.46
23805;BME280;12083;52.098;7.582;2022-07-17T08:47:52;102385.25;;;37.25;21.41
23805;BME280;12083;52.098;7.582;2022-07-17T08:50:26;102388.78;;;36.93;21.57
23805;BME280;12083;52.098;7.582;2022-07-17T08:52:53;102394.00;;;36.62;22.00
23805;BME280;12083;52.098;7.582;2022-07-17T08:55:19;102398.81;;;36.34;21.82
23805;BME280;12083;52.098;7.582;2022-07-17T08:57:45;102398.72;;;36.10;21.89
23805;BME280;12083;52.098;7.582;2022-07-17T09:00:17;102392.53;;;35.82;22.02
23805;BME280;12083;52.098;7.582;2022-07-17T09:03:04;102387.28;;;35.45;22.03
23805;BME280;12083;52.098;7.582;2022-07-17T09:05:37;102391.44;;;35.14;22.53
23805;BME280;12083;52.098;7.582;2022-07-17T09:08:05;102384.38;;;34.94;23.20
23805;BME280;12083;52.098;7.582;2022-07-17T09:12:58;102387.00;;;34.68;23.34
23805;BME280;12083;52.098;7.582;2022-07-17T09:15:24;102385.28;;;34.57;23.43
23805;BME280;12083;52.098;7.582;2022-07-17T09:17:51;102379.59;;;34.51;23.44
23805;BME280;12083;52.098;7.582;2022-07-17T09:20:17;102376.84;;;34.51;23.56
23805;BME280;12083;52.098;7.582;2022-07-17T09:22:55;102372.66;;;34.56;22.85
23805;BME280;12083;52.098;7.582;2022-07-17T09:25:31;102382.97;;;34.62;23.00
23805;BME280;12083;52.098;7.582;2022-07-17T09:27:57;102387.47;;;34.81;22.72
23805;BME280;12083;52.098;7.582;2022-07-17T09:30:22;102388.19;;;35.01;22.57
23805;BME280;12083;52.098;7.582;2022-07-17T09:32:48;102382.28;;;35.23;22.34
23805;BME280;12083;52.098;7.582;2022-07-17T09:35:14;102380.09;;;35.44;22.46
23805;BME280;12083;52.098;7.582;2022-07-17T09:37:41;102387.13;;;35.64;21.74
23805;BME280;12083;52.098;7.582;2022-07-17T09:40:11;102381.25;;;35.85;21.71
23805;BME280;12083;52.098;7.582;2022-07-17T09:42:57;102375.06;;;36.09;21.70
23805;BME280;12083;52.098;7.582;2022-07-17T09:45:23;102375.53;;;36.22;21.38
23805;BME280;12083;52.098;7.582;2022-07-17T09:47:50;102379.50;;;36.36;21.53
23805;BME280;12083;52.098;7.582;2022-07-17T09:50:19;102370.97;;;36.47;21.70
23805;BME280;12083;52.098;7.582;2022-07-17T09:52:45;102375.44;;;36.48;21.47
23805;BME280;12083;52.098;7.582;2022-07-17T09:55:11;102379.00;;;36.40;21.40
23805;BME280;12083;52.098;7.582;2022-07-17T09:57:40;102384.78;;;36.29;21.47
23805;BME280;12083;52.098;7.582;2022-07-17T10:00:08;102373.59;;;36.14;21.58
23805;BME280;12083;52.098;7.582;2022-07-17T10:02:42;102382.16;;;35.94;21.71
23805;BME280;12083;52.098;7.582;2022-07-17T10:05:12;102381.66;;;35.72;21.89
23805;BME280;12083;52.098;7.582;2022-07-17T10:07:41;102380.16;;;35.52;22.40
23805;BME280;12083;52.098;7.582;2022-07-17T10:10:09;102378.75;;;35.30;22.10
23805;BME280;12083;52.098;7.582;2022-07-17T10:12:38;102384.81;;;35.07;21.99
23805;BME280;12083;52.098;7.582;2022-07-17T10:15:05;102380.00;;;34.83;22.48
23805;BME280;12083;52.098;7.582;2022-07-17T10:17:31;102383.41;;;34.58;22.85
23805;BME280;12083;52.098;7.582;2022-07-17T10:19:57;102386.00;;;34.32;22.66
23805;BME280;12083;52.098;7.582;2022-07-17T10:22:24;102383.22;;;34.05;22.83
23805;BME280;12083;52.098;7.582;2022-07-17T10:24:53;102374.53;;;33.82;22.68
23805;BME280;12083;52.098;7.582;2022-07-17T10:27:25;102373.25;;;33.57;22.87
23805;BME280;12083;52.098;7.582;2022-07-17T10:30:08;102374.13;;;33.38;23.15
23805;BME280;12083;52.098;7.582;2022-07-17T10:32:35;102376.75;;;33.21;23.30
23805;BME280;12083;52.098;7.582;2022-07-17T10:35:05;102370.72;;;33.17;23.13
23805;BME280;12083;52.098;7.582;2022-07-17T10:37:32;102368.56;;;33.21;23.25
23805;BME280;12083;52.098;7.582;2022-07-17T10:40:05;102366.41;;;33.34;23.04
23805;BME280;12083;52.098;7.582;2022-07-17T10:42:52;102375.53;;;33.62;23.00
23805;BME280;12083;52.098;7.582;2022-07-17T10:45:21;102360.09;;;33.99;22.83
23805;BME280;12083;52.098;7.582;2022-07-17T10:50:23;102370.38;;;34.79;21.82
23805;BME280;12083;52.098;7.582;2022-07-17T10:53:05;102375.84;;;34.97;21.77
23805;BME280;12083;52.098;7.582;2022-07-17T10:55:31;102368.53;;;35.15;22.30
23805;BME280;12083;52.098;7.582;2022-07-17T10:57:57;102374.16;;;35.31;21.75
23805;BME280;12083;52.098;7.582;2022-07-17T11:00:23;102365.69;;;35.42;22.06
23805;BME280;12083;52.098;7.582;2022-07-17T11:02:49;102371.16;;;35.42;22.35
23805;BME280;12083;52.098;7.582;2022-07-17T11:05:15;102370.47;;;35.40;22.32
23805;BME280;12083;52.098;7.582;2022-07-17T11:07:54;102371.09;;;35.34;22.75
23805;BME280;12083;52.098;7.582;2022-07-17T11:10:22;102372.22;;;35.23;23.03
23805;BME280;12083;52.098;7.582;2022-07-17T11:12:48;102377.59;;;35.15;22.92
23805;BME280;12083;52.098;7.582;2022-07-17T11:15:13;102366.56;;;35.07;22.52
23805;BME280;12083;52.098;7.582;2022-07-17T11:17:44;102367.13;;;34.93;23.09
23805;BME280;12083;52.098;7.582;2022-07-17T11:20:11;102365.06;;;34.77;22.64
23805;BME280;12083;52.098;7.582;2022-07-17T11:22:36;102366.72;;;34.61;23.02
23805;BME280;12083;52.098;7.582;2022-07-17T11:25:04;102364.97;;;34.42;22.52
23805;BME280;12083;52.098;7.582;2022-07-17T11:27:30;102359.19;;;34.18;22.57
23805;BME280;12083;52.098;7.582;2022-07-17T11:29:58;102364.00;;;33.96;22.48
23805;BME280;12083;52.098;7.582;2022-07-17T11:32:31;102372.69;;;33.73;22.49
23805;BME280;12083;52.098;7.582;2022-07-17T11:34:57;102360.78;;;33.45;22.36
23805;BME280;12083;52.098;7.582;2022-07-17T11:37:28;102354.09;;;33.20;22.53
23805;BME280;12083;52.098;7.582;2022-07-17T11:39:56;102356.06;;;32.89;22.29
23805;BME280;12083;52.098;7.582;2022-07-17T11:42:22;102357.09;;;32.58;22.38
23805;BME280;12083;52.098;7.582;2022-07-17T11:44:55;102355.34;;;32.38;22.67
23805;BME280;12083;52.098;7.582;2022-07-17T11:47:23;102354.13;;;32.21;22.67
23805;BME280;12083;52.098;7.582;2022-07-17T11:49:49;102349.81;;;32.09;22.93
23805;BME280;12083;52.098;7.582;2022-07-17T11:52:17;102349.00;;;31.97;22.58
23805;BME280;12083;52.098;7.582;2022-07-17T11:54:52;102346.78;;;31.82;22.60
23805;BME280;12083;52.098;7.582;2022-07-17T11:57:25;102343.00;;;31.73;23.16
23805;BME280;12083;52.098;7.582;2022-07-17T11:59:51;102338.44;;;31.74;23.07
23805;BME280;12083;52.098;7.582;2022-07-17T12:02:20;102345.84;;;31.72;23.10
23805;BME280;12083;52.098;7.582;2022-07-17T12:04:58;102338.44;;;31.74;23.00
23805;BME280;12083;52.098;7.582;2022-07-17T12:07:26;102334.44;;;31.78;23.41
23805;BME280;12083;52.098;7.582;2022-07-17T12:09:53;102342.34;;;31.90;22.95
23805;BME280;12083;52.098;7.582;2022-07-17T12:12:26;102332.34;;;32.11;23.15
23805;BME280;12083;52.098;7.582;2022-07-17T12:14:52;102327.13;;;32.39;22.92
23805;BME280;12083;52.098;7.582;2022-07-17T12:17:18;102326.63;;;32.64;22.82
23805;BME280;12083;52.098;7.582;2022-07-17T12:19:43;102320.50;;;33.00;22.49
23805;BME280;12083;52.098;7.582;2022-07-17T12:22:09;102318.19;;;33.44;21.85
23805;BME280;12083;52.098;7.582;2022-07-17T12:24:44;102313.38;;;33.84;21.23
23805;BME280;12083;52.098;7.582;2022-07-17T12:27:12;102311.91;;;34.27;21.49
23805;BME280;12083;52.098;7.582;2022-07-17T12:29:38;102307.63;;;34.69;20.83
23805;BME280;12083;52.098;7.582;2022-07-17T12:34:35;102303.09;;;34.96;20.36
23805;BME280;12083;52.098;7.582;2022-07-17T12:37:01;102290.16;;;34.98;20.36
23805;BME280;12083;52.098;7.582;2022-07-17T12:39:27;102299.28;;;35.06;20.55
23805;BME280;12083;52.098;7.582;2022-07-17T12:41:52;102293.97;;;35.05;20.38
23805;BME280;12083;52.098;7.582;2022-07-17T12:44:18;102292.56;;;35.01;20.44
23805;BME280;12083;52.098;7.582;2022-07-17T12:46:44;102301.41;;;34.95;20.49
23805;BME280;12083;52.098;7.582;2022-07-17T12:49:09;102297.72;;;34.86;20.32
23805;BME280;12083;52.098;7.582;2022-07-17T12:51:35;102295.78;;;34.78;19.81
23805;BME280;12083;52.098;7.582;2022-07-17T12:54:00;102301.16;;;34.70;20.54
23805;BME280;12083;52.098;7.582;2022-07-17T12:56:26;102294.16;;;34.58;20.51
23805;BME280;12083;52.098;7.582;2022-07-17T12:58:52;102290.88;;;34.37;20.28
23805;BME280;12083;52.098;7.582;2022-07-17T13:01:18;102283.25;;;34.13;20.39
23805;BME280;12083;52.098;7.582;2022-07-17T13:03:44;102283.88;;;33.97;20.73
23805;BME280;12083;52.098;7.582;2022-07-17T13:06:10;102280.53;;;33.76;20.58
23805;BME280;12083;52.098;7.582;2022-07-17T13:08:36;102283.47;;;33.56;20.76
23805;BME280;12083;52.098;7.582;2022-07-17T13:11:02;102279.31;;;33.42;20.73
23805;BME280;12083;52.098;7.582;2022-07-17T13:13:28;102279.78;;;33.28;20.94
23805;BME280;12083;52.098;7.582;2022-07-17T13:15:55;102276.50;;;33.15;20.77
23805;BME280;12083;52.098;7.582;2022-07-17T13:18:21;102274.63;;;33.05;20.89
23805;BME280;12083;52.098;7.582;2022-07-17T13:20:46;102272.78;;;32.96;21.02
23805;BME280;12083;52.098;7.582;2022-07-17T13:23:12;102270.91;;;32.87;21.01
23805;BME280;12083;52.098;7.582;2022-07-17T13:25:38;102277.22;;;32.78;21.17
23805;BME280;12083;52.098;7.582;2022-07-17T13:28:05;102273.19;;;32.73;21.09
23805;BME280;12083;52.098;7.582;2022-07-17T13:30:32;102278.06;;;32.69;21.37
23805;BME280;12083;52.098;7.582;2022-07-17T13:32:58;102279.66;;;32.62;21.17
23805;BME280;12083;52.098;7.582;2022-07-17T13:35:25;102270.44;;;32.53;21.19
23805;BME280;12083;52.098;7.582;2022-07-17T13:37:51;102273.16;;;32.44;21.48
23805;BME280;12083;52.098;7.582;2022-07-17T13:40:17;102278.16;;;32.39;21.26
23805;BME280;12083;52.098;7.582;2022-07-17T13:42:45;102274.97;;;32.34;21.20
23805;BME280;12083;52.098;7.582;2022-07-17T13:45:11;102273.25;;;32.33;21.22
23805;BME280;12083;52.098;7.582;2022-07-17T13:47:37;102271.41;;;32.33;21.43
23805;BME280;12083;52.098;7.582;2022-07-17T13:50:04;102274.84;;;32.35;21.28
23805;BME280;12083;52.098;7.582;2022-07-17T13:52:30;102279.03;;;32.39;21.09
23805;BME280;12083;52.098;7.582;2022-07-17T13:54:56;102263.41;;;32.41;21.42